sensor_id;sensor_type;location;lat;lon;timestamp;P1;durP1;ratioP1;P2;durP2;ratioP2
9815;SDS011;4947;44.526;11.360;2023-02-21T00:00:12;60.22;;;27.90;;
9815;SDS011;4947;44.526;11.360;2023-02-21T03:42:22;49.55;;;26.35;;
9815;SDS011;4947;44.526;11.360;2023-02-21T03:44:50;52.35;;;27.50;;
9815;SDS011;4947;44.526;11.360;2023-02-21T03:47:20;58.33;;;27.77;;
9815;SDS011;4947;44.526;11.360;2023-02-21T03:49:48;52.70;;;27.63;;
9815;SDS011;4947;44.526;11.360;2023-02-21T03:52:15;56.58;;;29.50;;
9815;SDS011;4947;44.526;11.360;2023-02-21T03:54:43;51.72;;;26.98;;
9815;SDS011;4947;44.526;11.360;2023-02-21T03:57:11;53.35;;;26.92;;
9815;SDS011;4947;44.526;11.360;2023-02-21T03:59:40;58.55;;;28.92;;
9815;SDS011;4947;44.526;11.360;2023-02-21T04:02:08;56.83;;;27.92;;
9815;SDS011;4947;44.526;11.360;2023-02-21T04:04:36;56.92;;;28.05;;
9815;SDS011;4947;44.526;11.360;2023-02-21T04:07:04;57.20;;;26.90;;
9815;SDS011;4947;44.526;11.360;2023-02-21T04:09:32;48.67;;;25.35;;
9815;SDS011;4947;44.526;11.360;2023-02-21T04:12:00;49.78;;;27.30;;
9815;SDS011;4947;44.526;11.360;2023-02-21T04:14:28;50.40;;;26.88;;
9815;SDS011;4947;44.526;11.360;2023-02-21T04:16:57;58.97;;;28.80;;
9815;SDS011;4947;44.526;11.360;2023-02-21T04:19:25;53.72;;;26.80;;
9815;SDS011;4947;44.526;11.360;2023-02-21T04:21:53;56.40;;;29.25;;
9815;SDS011;4947;44.526;11.360;2023-02-21T04:24:21;55.45;;;27.52;;
9815;SDS011;4947;44.526;11.360;2023-02-21T04:26:48;59.20;;;28.73;;
9815;SDS011;4947;44.526;11.360;2023-02-21T04:29:16;55.08;;;27.27;;
9815;SDS011;4947;44.526;11.360;2023-02-21T04:31:45;57.08;;;28.15;;
9815;SDS011;4947;44.526;11.360;2023-02-21T04:34:14;53.20;;;26.58;;
9815;SDS011;4947;44.526;11.360;2023-02-21T04:36:42;62.00;;;28.33;;
9815;SDS011;4947;44.526;11.360;2023-02-21T04:39:10;52.75;;;26.75;;
9815;SDS011;4947;44.526;11.360;2023-02-21T04:41:38;53.90;;;28.38;;
9815;SDS011;4947;44.526;11.360;2023-02-21T04:44:06;53.97;;;27.83;;
9815;SDS011;4947;44.526;11.360;2023-02-21T04:46:33;56.88;;;26.45;;
9815;SDS011;4947;44.526;11.360;2023-02-21T04:49:00;53.60;;;26.83;;
9815;SDS011;4947;44.526;11.360;2023-02-21T04:51:30;52.63;;;27.30;;
9815;SDS011;4947;44.526;11.360;2023-02-21T04:53:58;60.83;;;28.00;;
9815;SDS011;4947;44.526;11.360;2023-02-21T04:56:25;57.67;;;29.53;;
9815;SDS011;4947;44.526;11.360;2023-02-21T04:58:53;55.38;;;28.35;;
9815;SDS011;4947;44.526;11.360;2023-02-21T05:01:20;53.03;;;27.02;;
9815;SDS011;4947;44.526;11.360;2023-02-21T05:03:48;52.72;;;27.08;;
9815;SDS011;4947;44.526;11.360;2023-02-21T05:06:16;54.28;;;28.27;;
9815;SDS011;4947;44.526;11.360;2023-02-21T05:08:46;56.20;;;28.37;;
9815;SDS011;4947;44.526;11.360;2023-02-21T05:11:14;59.20;;;27.60;;
9815;SDS011;4947;44.526;11.360;2023-02-21T05:13:42;54.30;;;27.40;;
9815;SDS011;4947;44.526;11.360;2023-02-21T05:16:11;56.15;;;26.92;;
9815;SDS011;4947;44.526;11.360;2023-02-21T05:18:40;53.07;;;27.23;;
9815;SDS011;4947;44.526;11.360;2023-02-21T05:21:08;60.50;;;28.40;;
9815;SDS011;4947;44.526;11.360;2023-02-21T05:23:37;51.33;;;27.90;;
9815;SDS011;4947;44.526;11.360;2023-02-21T05:26:08;58.10;;;28.25;;
9815;SDS011;4947;44.526;11.360;2023-02-21T05:28:38;53.00;;;26.17;;
9815;SDS011;4947;44.526;11.360;2023-02-21T05:31:06;57.43;;;27.73;;
9815;SDS011;4947;44.526;11.360;2023-02-21T05:33:33;60.23;;;28.87;;
9815;SDS011;4947;44.526;11.360;2023-02-21T05:36:04;52.77;;;26.63;;
9815;SDS011;4947;44.526;11.360;2023-02-21T05:38:33;54.25;;;29.77;;
9815;SDS011;4947;44.526;11.360;2023-02-21T05:41:15;55.17;;;28.27;;
9815;SDS011;4947;44.526;11.360;2023-02-21T05:43:43;61.15;;;28.52;;
9815;SDS011;4947;44.526;11.360;2023-02-21T05:46:16;57.73;;;31.00;;
9815;SDS011;4947;44.526;11.360;2023-02-21T05:48:45;62.88;;;30.05;;
9815;SDS011;4947;44.526;11.360;2023-02-21T05:51:14;60.00;;;30.65;;
9815;SDS011;4947;44.526;11.360;2023-02-21T05:53:42;70.78;;;33.20;;
9815;SDS011;4947;44.526;11.360;2023-02-21T05:56:09;66.77;;;30.83;;
9815;SDS011;4947;44.526;11.360;2023-02-21T05:58:39;64.73;;;29.93;;
9815;SDS011;4947;44.526;11.360;2023-02-21T06:01:07;63.80;;;29.92;;
9815;SDS011;4947;44.526;11.360;2023-02-21T06:03:36;72.83;;;32.90;;
9815;SDS011;4947;44.526;11.360;2023-02-21T06:06:04;62.42;;;32.08;;
9815;SDS011;4947;44.526;11.360;2023-02-21T06:08:32;73.10;;;32.87;;
9815;SDS011;4947;44.526;11.360;2023-02-21T06:11:07;69.00;;;31.15;;
9815;SDS011;4947;44.526;11.360;2023-02-21T06:13:35;74.40;;;32.72;;
9815;SDS011;4947;44.526;11.360;2023-02-21T06:16:04;65.70;;;32.73;;
9815;SDS011;4947;44.526;11.360;2023-02-21T06:18:32;66.47;;;33.00;;
9815;SDS011;4947;44.526;11.360;2023-02-21T06:21:00;75.10;;;34.90;;
9815;SDS011;4947;44.526;11.360;2023-02-21T06:23:28;79.05;;;33.22;;
9815;SDS011;4947;44.526;11.360;2023-02-21T06:25:55;72.88;;;32.22;;
9815;SDS011;4947;44.526;11.360;2023-02-21T06:28:26;62.90;;;30.08;;
9815;SDS011;4947;44.526;11.360;2023-02-21T06:30:55;62.88;;;32.15;;
9815;SDS011;4947;44.526;11.360;2023-02-21T06:33:27;64.10;;;31.38;;
9815;SDS011;4947;44.526;11.360;2023-02-21T06:35:55;76.80;;;33.47;;
9815;SDS011;4947;44.526;11.360;2023-02-21T06:38:23;64.88;;;32.08;;
9815;SDS011;4947;44.526;11.360;2023-02-21T06:40:50;63.88;;;31.67;;
9815;SDS011;4947;44.526;11.360;2023-02-21T06:43:18;60.17;;;30.50;;
9815;SDS011;4947;44.526;11.360;2023-02-21T06:45:45;63.33;;;31.08;;
9815;SDS011;4947;44.526;11.360;2023-02-21T06:48:13;64.70;;;32.78;;
9815;SDS011;4947;44.526;11.360;2023-02-21T06:50:42;68.22;;;32.17;;
9815;SDS011;4947;44.526;11.360;2023-02-21T06:53:10;67.30;;;32.83;;
9815;SDS011;4947;44.526;11.360;2023-02-21T06:55:38;63.15;;;30.92;;
9815;SDS011;4947;44.526;11.360;2023-02-21T06:58:06;66.55;;;32.17;;
9815;SDS011;4947;44.526;11.360;2023-02-21T07:00:35;67.18;;;34.00;;
9815;SDS011;4947;44.526;11.360;2023-02-21T07:03:10;70.25;;;33.78;;
9815;SDS011;4947;44.526;11.360;2023-02-21T07:05:37;65.05;;;33.25;;
9815;SDS011;4947;44.526;11.360;2023-02-21T07:08:06;59.30;;;32.15;;
9815;SDS011;4947;44.526;11.360;2023-02-21T07:10:34;63.63;;;30.83;;
9815;SDS011;4947;44.526;11.360;2023-02-21T07:13:02;71.63;;;32.38;;
9815;SDS011;4947;44.526;11.360;2023-02-21T07:15:30;59.83;;;32.05;;
9815;SDS011;4947;44.526;11.360;2023-02-21T07:17:57;60.67;;;29.33;;
9815;SDS011;4947;44.526;11.360;2023-02-21T07:20:25;66.05;;;30.63;;
9815;SDS011;4947;44.526;11.360;2023-02-21T07:22:53;60.05;;;29.75;;
9815;SDS011;4947;44.526;11.360;2023-02-21T07:25:22;61.30;;;30.20;;
9815;SDS011;4947;44.526;11.360;2023-02-21T07:27:50;59.55;;;30.27;;
9815;SDS011;4947;44.526;11.360;2023-02-21T07:30:18;64.00;;;31.25;;
9815;SDS011;4947;44.526;11.360;2023-02-21T07:32:46;58.58;;;29.20;;
9815;SDS011;4947;44.526;11.360;2023-02-21T07:35:14;68.85;;;32.72;;
9815;SDS011;4947;44.526;11.360;2023-02-21T07:37:42;65.75;;;32.40;;
9815;SDS011;4947;44.526;11.360;2023-02-21T07:40:10;59.78;;;30.02;;
9815;SDS011;4947;44.526;11.360;2023-02-21T07:42:41;58.28;;;29.73;;
9815;SDS011;4947;44.526;11.360;2023-02-21T07:45:10;59.72;;;30.95;;
9815;SDS011;4947;44.526;11.360;2023-02-21T07:47:40;66.68;;;29.77;;
9815;SDS011;4947;44.526;11.360;2023-02-21T07:50:09;63.30;;;30.95;;
9815;SDS011;4947;44.526;11.360;2023-02-21T07:52:37;61.47;;;31.42;;
9815;SDS011;4947;44.526;11.360;2023-02-21T07:55:05;63.88;;;32.75;;
9815;SDS011;4947;44.526;11.360;2023-02-21T07:57:33;67.70;;;31.55;;
9815;SDS011;4947;44.526;11.360;2023-02-21T08:00:02;61.00;;;32.10;;
9815;SDS011;4947;44.526;11.360;2023-02-21T08:02:30;69.65;;;34.70;;
9815;SDS011;4947;44.526;11.360;2023-02-21T08:04:58;61.85;;;33.13;;
9815;SDS011;4947;44.526;11.360;2023-02-21T08:07:25;69.15;;;36.08;;
9815;SDS011;4947;44.526;11.360;2023-02-21T08:09:53;72.43;;;34.15;;
9815;SDS011;4947;44.526;11.360;2023-02-21T08:12:21;68.70;;;34.97;;
9815;SDS011;4947;44.526;11.360;2023-02-21T08:14:49;63.45;;;33.58;;
9815;SDS011;4947;44.526;11.360;2023-02-21T08:17:18;77.72;;;35.55;;
9815;SDS011;4947;44.526;11.360;2023-02-21T08:19:45;71.65;;;34.60;;
9815;SDS011;4947;44.526;11.360;2023-02-21T08:22:13;65.15;;;33.22;;
9815;SDS011;4947;44.526;11.360;2023-02-21T08:24:41;68.32;;;35.17;;
9815;SDS011;4947;44.526;11.360;2023-02-21T08:27:08;64.68;;;34.08;;
9815;SDS011;4947;44.526;11.360;2023-02-21T08:29:36;73.20;;;35.72;;
9815;SDS011;4947;44.526;11.360;2023-02-21T08:32:04;61.40;;;33.33;;
9815;SDS011;4947;44.526;11.360;2023-02-21T08:34:34;71.93;;;34.40;;
9815;SDS011;4947;44.526;11.360;2023-02-21T08:37:01;70.25;;;36.15;;
9815;SDS011;4947;44.526;11.360;2023-02-21T08:39:30;73.63;;;35.75;;
9815;SDS011;4947;44.526;11.360;2023-02-21T08:41:59;61.97;;;33.20;;
9815;SDS011;4947;44.526;11.360;2023-02-21T08:44:26;77.43;;;32.58;;
9815;SDS011;4947;44.526;11.360;2023-02-21T08:46:54;62.38;;;33.88;;
9815;SDS011;4947;44.526;11.360;2023-02-21T08:49:22;69.57;;;34.25;;
9815;SDS011;4947;44.526;11.360;2023-02-21T08:51:54;68.55;;;35.25;;
9815;SDS011;4947;44.526;11.360;2023-02-21T08:54:22;71.85;;;33.25;;
9815;SDS011;4947;44.526;11.360;2023-02-21T08:56:49;66.45;;;35.03;;
9815;SDS011;4947;44.526;11.360;2023-02-21T08:59:18;65.30;;;33.85;;
9815;SDS011;4947;44.526;11.360;2023-02-21T09:01:46;72.63;;;35.40;;
9815;SDS011;4947;44.526;11.360;2023-02-21T09:04:13;75.88;;;35.60;;
9815;SDS011;4947;44.526;11.360;2023-02-21T09:06:40;70.35;;;36.85;;
9815;SDS011;4947;44.526;11.360;2023-02-21T09:09:10;76.03;;;37.85;;
9815;SDS011;4947;44.526;11.360;2023-02-21T09:11:38;73.00;;;37.13;;
9815;SDS011;4947;44.526;11.360;2023-02-21T09:14:08;77.80;;;37.28;;
9815;SDS011;4947;44.526;11.360;2023-02-21T09:16:38;80.10;;;39.20;;
9815;SDS011;4947;44.526;11.360;2023-02-21T09:19:06;73.07;;;37.55;;
9815;SDS011;4947;44.526;11.360;2023-02-21T09:21:34;79.13;;;37.13;;
9815;SDS011;4947;44.526;11.360;2023-02-21T09:24:11;75.47;;;38.20;;
9815;SDS011;4947;44.526;11.360;2023-02-21T09:26:38;75.25;;;37.97;;
9815;SDS011;4947;44.526;11.360;2023-02-21T09:29:06;75.78;;;38.83;;
9815;SDS011;4947;44.526;11.360;2023-02-21T09:31:36;81.45;;;38.42;;
9815;SDS011;4947;44.526;11.360;2023-02-21T09:34:08;74.38;;;39.58;;
9815;SDS011;4947;44.526;11.360;2023-02-21T09:36:35;72.15;;;37.03;;
9815;SDS011;4947;44.526;11.360;2023-02-21T09:39:03;79.43;;;38.42;;
9815;SDS011;4947;44.526;11.360;2023-02-21T09:41:32;76.20;;;38.33;;
9815;SDS011;4947;44.526;11.360;2023-02-21T09:44:01;78.95;;;38.22;;
9815;SDS011;4947;44.526;11.360;2023-02-21T09:46:31;74.18;;;38.03;;
9815;SDS011;4947;44.526;11.360;2023-02-21T09:49:01;68.55;;;37.47;;
9815;SDS011;4947;44.526;11.360;2023-02-21T09:51:31;74.43;;;37.08;;
9815;SDS011;4947;44.526;11.360;2023-02-21T09:54:01;74.28;;;38.35;;
9815;SDS011;4947;44.526;11.360;2023-02-21T09:56:30;75.38;;;38.00;;
9815;SDS011;4947;44.526;11.360;2023-02-21T09:59:05;72.28;;;37.05;;
9815;SDS011;4947;44.526;11.360;2023-02-21T10:01:41;78.75;;;38.28;;
9815;SDS011;4947;44.526;11.360;2023-02-21T10:04:20;79.20;;;38.15;;
9815;SDS011;4947;44.526;11.360;2023-02-21T10:06:56;73.65;;;39.65;;
9815;SDS011;4947;44.526;11.360;2023-02-21T10:09:31;69.68;;;37.30;;
9815;SDS011;4947;44.526;11.360;2023-02-21T10:12:09;79.97;;;39.33;;
9815;SDS011;4947;44.526;11.360;2023-02-21T10:14:46;76.97;;;38.97;;
9815;SDS011;4947;44.526;11.360;2023-02-21T10:17:33;74.00;;;37.47;;
9815;SDS011;4947;44.526;11.360;2023-02-21T10:20:07;70.90;;;38.20;;
9815;SDS011;4947;44.526;11.360;2023-02-21T10:22:40;68.95;;;36.40;;
9815;SDS011;4947;44.526;11.360;2023-02-21T10:25:17;79.75;;;39.00;;
9815;SDS011;4947;44.526;11.360;2023-02-21T10:27:50;81.35;;;40.55;;
9815;SDS011;4947;44.526;11.360;2023-02-21T10:30:22;81.32;;;39.88;;
9815;SDS011;4947;44.526;11.360;2023-02-21T10:32:53;83.13;;;37.75;;
9815;SDS011;4947;44.526;11.360;2023-02-21T10:35:20;69.50;;;38.30;;
9815;SDS011;4947;44.526;11.360;2023-02-21T10:37:48;82.43;;;39.38;;
9815;SDS011;4947;44.526;11.360;2023-02-21T10:40:29;82.57;;;38.75;;
9815;SDS011;4947;44.526;11.360;2023-02-21T10:43:03;75.30;;;37.05;;
9815;SDS011;4947;44.526;11.360;2023-02-21T10:45:35;73.00;;;36.90;;
9815;SDS011;4947;44.526;11.360;2023-02-21T10:48:06;76.28;;;36.65;;
9815;SDS011;4947;44.526;11.360;2023-02-21T10:50:37;73.43;;;37.33;;
9815;SDS011;4947;44.526;11.360;2023-02-21T10:53:21;69.45;;;36.15;;
9815;SDS011;4947;44.526;11.360;2023-02-21T10:56:07;74.30;;;32.85;;
9815;SDS011;4947;44.526;11.360;2023-02-21T10:58:48;76.38;;;34.75;;
9815;SDS011;4947;44.526;11.360;2023-02-21T11:01:18;74.45;;;36.42;;
9815;SDS011;4947;44.526;11.360;2023-02-21T11:03:49;72.72;;;37.35;;
9815;SDS011;4947;44.526;11.360;2023-02-21T11:06:23;65.07;;;34.22;;
9815;SDS011;4947;44.526;11.360;2023-02-21T11:08:59;75.40;;;38.05;;
9815;SDS011;4947;44.526;11.360;2023-02-21T11:11:31;68.80;;;35.42;;
9815;SDS011;4947;44.526;11.360;2023-02-21T11:19:46;69.05;;;34.55;;
9815;SDS011;4947;44.526;11.360;2023-02-21T11:22:16;69.10;;;34.70;;
9815;SDS011;4947;44.526;11.360;2023-02-21T11:24:48;66.15;;;33.38;;
9815;SDS011;4947;44.526;11.360;2023-02-21T11:27:22;68.90;;;35.90;;
9815;SDS011;4947;44.526;11.360;2023-02-21T11:29:52;71.05;;;34.88;;
9815;SDS011;4947;44.526;11.360;2023-02-21T11:32:23;63.67;;;33.22;;
9815;SDS011;4947;44.526;11.360;2023-02-21T11:34:59;68.07;;;33.03;;
9815;SDS011;4947;44.526;11.360;2023-02-21T11:37:29;53.85;;;30.35;;
9815;SDS011;4947;44.526;11.360;2023-02-21T11:39:57;60.78;;;31.38;;
9815;SDS011;4947;44.526;11.360;2023-02-21T11:42:27;55.88;;;32.55;;
9815;SDS011;4947;44.526;11.360;2023-02-21T11:45:11;66.80;;;34.13;;
9815;SDS011;4947;44.526;11.360;2023-02-21T11:47:49;56.10;;;29.73;;
9815;SDS011;4947;44.526;11.360;2023-02-21T11:50:23;47.58;;;26.30;;
9815;SDS011;4947;44.526;11.360;2023-02-21T11:52:54;46.53;;;25.02;;
9815;SDS011;4947;44.526;11.360;2023-02-21T11:55:27;55.70;;;27.52;;
9815;SDS011;4947;44.526;11.360;2023-02-21T11:57:58;51.03;;;28.20;;
9815;SDS011;4947;44.526;11.360;2023-02-21T12:00:38;55.45;;;28.23;;
9815;SDS011;4947;44.526;11.360;2023-02-21T12:03:17;53.40;;;28.83;;
9815;SDS011;4947;44.526;11.360;2023-02-21T12:05:59;55.33;;;27.02;;
9815;SDS011;4947;44.526;11.360;2023-02-21T12:08:41;62.53;;;28.70;;
9815;SDS011;4947;44.526;11.360;2023-02-21T12:11:15;61.22;;;27.60;;
9815;SDS011;4947;44.526;11.360;2023-02-21T12:14:15;64.45;;;29.95;;
9815;SDS011;4947;44.526;11.360;2023-02-21T12:16:54;55.17;;;30.02;;
9815;SDS011;4947;44.526;11.360;2023-02-21T12:19:36;66.03;;;32.17;;
9815;SDS011;4947;44.526;11.360;2023-02-21T12:22:16;52.72;;;28.67;;
9815;SDS011;4947;44.526;11.360;2023-02-21T12:24:57;58.60;;;31.05;;
9815;SDS011;4947;44.526;11.360;2023-02-21T12:27:35;58.47;;;31.70;;
9815;SDS011;4947;44.526;11.360;2023-02-21T12:30:16;53.28;;;29.08;;
9815;SDS011;4947;44.526;11.360;2023-02-21T12:32:59;55.40;;;27.48;;
9815;SDS011;4947;44.526;11.360;2023-02-21T12:35:44;46.78;;;22.92;;
9815;SDS011;4947;44.526;11.360;2023-02-21T12:38:38;45.40;;;24.60;;
9815;SDS011;4947;44.526;11.360;2023-02-21T12:41:29;42.45;;;23.63;;
9815;SDS011;4947;44.526;11.360;2023-02-21T12:44:06;40.17;;;23.60;;
9815;SDS011;4947;44.526;11.360;2023-02-21T12:46:39;48.38;;;25.23;;
9815;SDS011;4947;44.526;11.360;2023-02-21T12:49:15;39.55;;;21.88;;
9815;SDS011;4947;44.526;11.360;2023-02-21T12:51:48;43.55;;;23.65;;
9815;SDS011;4947;44.526;11.360;2023-02-21T12:54:25;40.83;;;21.85;;
9815;SDS011;4947;44.526;11.360;2023-02-21T12:57:00;45.60;;;23.33;;
9815;SDS011;4947;44.526;11.360;2023-02-21T12:59:42;48.70;;;24.50;;
9815;SDS011;4947;44.526;11.360;2023-02-21T13:02:23;45.72;;;24.02;;
9815;SDS011;4947;44.526;11.360;2023-02-21T13:04:59;46.85;;;23.15;;
9815;SDS011;4947;44.526;11.360;2023-02-21T13:07:36;44.67;;;23.90;;
9815;SDS011;4947;44.526;11.360;2023-02-21T13:10:12;45.35;;;26.38;;
9815;SDS011;4947;44.526;11.360;2023-02-21T13:12:43;43.20;;;24.15;;
9815;SDS011;4947;44.526;11.360;2023-02-21T13:15:17;49.70;;;25.15;;
9815;SDS011;4947;44.526;11.360;2023-02-21T13:17:51;47.88;;;22.55;;
9815;SDS011;4947;44.526;11.360;2023-02-21T13:20:31;45.58;;;23.08;;
9815;SDS011;4947;44.526;11.360;2023-02-21T13:26:19;42.22;;;25.05;;
9815;SDS011;4947;44.526;11.360;2023-02-21T13:28:55;55.72;;;27.17;;
9815;SDS011;4947;44.526;11.360;2023-02-21T13:31:25;58.00;;;27.33;;
9815;SDS011;4947;44.526;11.360;2023-02-21T13:34:01;45.95;;;24.20;;
9815;SDS011;4947;44.526;11.360;2023-02-21T13:36:39;46.95;;;24.85;;
9815;SDS011;4947;44.526;11.360;2023-02-21T13:39:10;45.75;;;25.77;;
9815;SDS011;4947;44.526;11.360;2023-02-21T13:41:41;53.60;;;27.75;;
9815;SDS011;4947;44.526;11.360;2023-02-21T13:44:16;52.08;;;26.70;;
9815;SDS011;4947;44.526;11.360;2023-02-21T13:52:27;50.22;;;27.30;;
9815;SDS011;4947;44.526;11.360;2023-02-21T14:01:11;51.72;;;23.92;;
9815;SDS011;4947;44.526;11.360;2023-02-21T14:07:52;45.05;;;24.00;;
9815;SDS011;4947;44.526;11.360;2023-02-21T14:10:23;47.65;;;22.75;;
9815;SDS011;4947;44.526;11.360;2023-02-21T14:13:00;49.00;;;25.05;;
9815;SDS011;4947;44.526;11.360;2023-02-21T14:15:44;44.53;;;22.23;;
9815;SDS011;4947;44.526;11.360;2023-02-21T14:18:14;38.85;;;21.50;;
9815;SDS011;4947;44.526;11.360;2023-02-21T14:20:45;41.28;;;20.58;;
9815;SDS011;4947;44.526;11.360;2023-02-21T14:23:18;43.08;;;23.92;;
9815;SDS011;4947;44.526;11.360;2023-02-21T14:25:57;42.00;;;23.13;;
9815;SDS011;4947;44.526;11.360;2023-02-21T14:31:47;47.05;;;24.13;;
9815;SDS011;4947;44.526;11.360;2023-02-21T14:34:19;40.13;;;22.42;;
9815;SDS011;4947;44.526;11.360;2023-02-21T14:36:51;46.00;;;22.77;;
9815;SDS011;4947;44.526;11.360;2023-02-21T14:39:25;46.67;;;23.70;;
9815;SDS011;4947;44.526;11.360;2023-02-21T14:42:05;41.75;;;22.52;;
9815;SDS011;4947;44.526;11.360;2023-02-21T14:44:54;37.78;;;21.17;;
9815;SDS011;4947;44.526;11.360;2023-02-21T14:47:51;35.50;;;19.23;;
9815;SDS011;4947;44.526;11.360;2023-02-21T14:50:35;32.05;;;18.50;;
9815;SDS011;4947;44.526;11.360;2023-02-21T14:53:20;38.65;;;18.40;;
9815;SDS011;4947;44.526;11.360;2023-02-21T15:02:22;35.35;;;19.38;;
9815;SDS011;4947;44.526;11.360;2023-02-21T15:05:03;34.47;;;18.95;;
9815;SDS011;4947;44.526;11.360;2023-02-21T15:07:38;39.17;;;19.30;;
9815;SDS011;4947;44.526;11.360;2023-02-21T15:10:15;35.63;;;17.23;;
9815;SDS011;4947;44.526;11.360;2023-02-21T15:12:46;35.08;;;18.38;;
9815;SDS011;4947;44.526;11.360;2023-02-21T15:15:17;35.65;;;19.00;;
9815;SDS011;4947;44.526;11.360;2023-02-21T15:18:00;35.05;;;18.88;;
9815;SDS011;4947;44.526;11.360;2023-02-21T15:20:31;34.13;;;18.10;;
9815;SDS011;4947;44.526;11.360;2023-02-21T15:23:00;38.78;;;18.58;;
9815;SDS011;4947;44.526;11.360;2023-02-21T15:25:33;33.15;;;18.40;;
9815;SDS011;4947;44.526;11.360;2023-02-21T15:28:03;33.70;;;18.20;;
9815;SDS011;4947;44.526;11.360;2023-02-21T15:30:34;22.08;;;13.18;;
9815;SDS011;4947;44.526;11.360;2023-02-21T15:33:07;23.10;;;12.05;;
9815;SDS011;4947;44.526;11.360;2023-02-21T15:35:40;25.08;;;14.30;;
9815;SDS011;4947;44.526;11.360;2023-02-21T15:38:14;32.30;;;16.00;;
9815;SDS011;4947;44.526;11.360;2023-02-21T15:40:46;27.75;;;15.57;;
9815;SDS011;4947;44.526;11.360;2023-02-21T15:43:24;35.53;;;17.77;;
9815;SDS011;4947;44.526;11.360;2023-02-21T15:45:56;28.85;;;16.50;;
9815;SDS011;4947;44.526;11.360;2023-02-21T15:48:31;34.20;;;17.73;;
9815;SDS011;4947;44.526;11.360;2023-02-21T15:51:00;30.00;;;17.27;;
9815;SDS011;4947;44.526;11.360;2023-02-21T15:53:31;23.63;;;14.82;;
9815;SDS011;4947;44.526;11.360;2023-02-21T15:56:15;30.08;;;14.90;;
9815;SDS011;4947;44.526;11.360;2023-02-21T15:59:05;21.90;;;12.82;;
9815;SDS011;4947;44.526;11.360;2023-02-21T16:01:34;23.95;;;13.23;;
9815;SDS011;4947;44.526;11.360;2023-02-21T16:04:16;25.38;;;15.18;;
9815;SDS011;4947;44.526;11.360;2023-02-21T16:06:48;30.00;;;15.48;;
9815;SDS011;4947;44.526;11.360;2023-02-21T16:09:19;26.13;;;14.90;;
9815;SDS011;4947;44.526;11.360;2023-02-21T16:11:51;27.83;;;15.05;;
9815;SDS011;4947;44.526;11.360;2023-02-21T16:14:24;23.98;;;14.98;;
9815;SDS011;4947;44.526;11.360;2023-02-21T16:17:05;31.17;;;16.48;;
9815;SDS011;4947;44.526;11.360;2023-02-21T16:19:49;24.60;;;14.63;;
9815;SDS011;4947;44.526;11.360;2023-02-21T16:22:22;26.40;;;14.43;;
9815;SDS011;4947;44.526;11.360;2023-02-21T16:27:44;29.00;;;13.75;;
9815;SDS011;4947;44.526;11.360;2023-02-21T16:32:49;24.73;;;13.05;;
9815;SDS011;4947;44.526;11.360;2023-02-21T16:35:19;25.45;;;14.50;;
9815;SDS011;4947;44.526;11.360;2023-02-21T16:37:48;28.70;;;15.75;;
9815;SDS011;4947;44.526;11.360;2023-02-21T16:40:19;28.60;;;15.82;;
9815;SDS011;4947;44.526;11.360;2023-02-21T16:42:55;27.13;;;15.70;;
9815;SDS011;4947;44.526;11.360;2023-02-21T16:45:26;39.42;;;21.08;;
9815;SDS011;4947;44.526;11.360;2023-02-21T16:47:56;68.35;;;30.77;;
9815;SDS011;4947;44.526;11.360;2023-02-21T16:50:27;56.80;;;28.67;;
9815;SDS011;4947;44.526;11.360;2023-02-21T16:52:57;45.83;;;21.90;;
9815;SDS011;4947;44.526;11.360;2023-02-21T16:55:24;47.53;;;22.95;;
9815;SDS011;4947;44.526;11.360;2023-02-21T16:57:53;39.67;;;20.98;;
9815;SDS011;4947;44.526;11.360;2023-02-21T17:00:23;38.22;;;21.08;;
9815;SDS011;4947;44.526;11.360;2023-02-21T17:02:52;50.10;;;23.40;;
9815;SDS011;4947;44.526;11.360;2023-02-21T17:05:20;36.30;;;19.38;;
9815;SDS011;4947;44.526;11.360;2023-02-21T17:07:48;35.83;;;20.60;;
9815;SDS011;4947;44.526;11.360;2023-02-21T17:10:17;43.55;;;19.65;;
9815;SDS011;4947;44.526;11.360;2023-02-21T17:12:45;38.42;;;19.63;;
9815;SDS011;4947;44.526;11.360;2023-02-21T17:15:13;37.47;;;19.92;;
9815;SDS011;4947;44.526;11.360;2023-02-21T17:17:47;37.72;;;20.52;;
9815;SDS011;4947;44.526;11.360;2023-02-21T17:20:16;39.75;;;19.92;;
9815;SDS011;4947;44.526;11.360;2023-02-21T17:22:45;37.63;;;21.48;;
9815;SDS011;4947;44.526;11.360;2023-02-21T17:25:14;44.67;;;24.25;;
9815;SDS011;4947;44.526;11.360;2023-02-21T17:27:42;55.80;;;26.30;;
9815;SDS011;4947;44.526;11.360;2023-02-21T17:30:11;43.42;;;24.30;;
9815;SDS011;4947;44.526;11.360;2023-02-21T17:32:39;37.17;;;21.08;;
9815;SDS011;4947;44.526;11.360;2023-02-21T17:35:09;46.85;;;21.92;;
9815;SDS011;4947;44.526;11.360;2023-02-21T17:37:38;34.88;;;20.23;;
9815;SDS011;4947;44.526;11.360;2023-02-21T17:40:07;45.15;;;22.85;;
9815;SDS011;4947;44.526;11.360;2023-02-21T17:42:35;46.80;;;24.15;;
9815;SDS011;4947;44.526;11.360;2023-02-21T17:45:03;54.90;;;25.85;;
9815;SDS011;4947;44.526;11.360;2023-02-21T17:47:31;50.63;;;26.25;;
9815;SDS011;4947;44.526;11.360;2023-02-21T17:49:59;50.10;;;24.38;;
9815;SDS011;4947;44.526;11.360;2023-02-21T17:52:29;42.22;;;22.88;;
9815;SDS011;4947;44.526;11.360;2023-02-21T17:54:57;43.88;;;23.05;;
9815;SDS011;4947;44.526;11.360;2023-02-21T17:57:26;50.92;;;23.85;;
9815;SDS011;4947;44.526;11.360;2023-02-21T17:59:59;46.33;;;21.85;;
9815;SDS011;4947;44.526;11.360;2023-02-21T18:02:26;44.22;;;24.80;;
9815;SDS011;4947;44.526;11.360;2023-02-21T18:04:54;48.65;;;25.65;;
9815;SDS011;4947;44.526;11.360;2023-02-21T18:07:22;47.97;;;24.88;;
9815;SDS011;4947;44.526;11.360;2023-02-21T18:09:54;50.45;;;26.52;;
9815;SDS011;4947;44.526;11.360;2023-02-21T18:12:22;55.53;;;26.65;;
9815;SDS011;4947;44.526;11.360;2023-02-21T18:14:50;52.28;;;26.92;;
9815;SDS011;4947;44.526;11.360;2023-02-21T18:17:17;56.63;;;26.42;;
9815;SDS011;4947;44.526;11.360;2023-02-21T18:19:45;48.72;;;24.63;;
9815;SDS011;4947;44.526;11.360;2023-02-21T18:22:13;52.22;;;27.38;;
9815;SDS011;4947;44.526;11.360;2023-02-21T18:24:41;57.33;;;29.33;;
9815;SDS011;4947;44.526;11.360;2023-02-21T18:27:11;50.75;;;28.33;;
9815;SDS011;4947;44.526;11.360;2023-02-21T18:29:39;61.38;;;29.23;;
9815;SDS011;4947;44.526;11.360;2023-02-21T18:32:07;57.47;;;29.27;;
9815;SDS011;4947;44.526;11.360;2023-02-21T18:34:35;56.05;;;28.17;;
9815;SDS011;4947;44.526;11.360;2023-02-21T18:37:05;54.15;;;28.38;;
9815;SDS011;4947;44.526;11.360;2023-02-21T18:39:33;50.60;;;27.40;;
9815;SDS011;4947;44.526;11.360;2023-02-21T18:42:01;56.95;;;27.80;;
9815;SDS011;4947;44.526;11.360;2023-02-21T18:44:31;56.85;;;28.33;;
9815;SDS011;4947;44.526;11.360;2023-02-21T18:46:58;56.08;;;27.95;;
9815;SDS011;4947;44.526;11.360;2023-02-21T18:49:26;56.83;;;28.65;;
9815;SDS011;4947;44.526;11.360;2023-02-21T18:51:56;57.55;;;27.80;;
9815;SDS011;4947;44.526;11.360;2023-02-21T18:54:27;58.90;;;27.98;;
9815;SDS011;4947;44.526;11.360;2023-02-21T18:56:55;50.72;;;27.73;;
9815;SDS011;4947;44.526;11.360;2023-02-21T18:59:23;52.35;;;29.42;;
9815;SDS011;4947;44.526;11.360;2023-02-21T19:01:53;60.55;;;30.77;;
9815;SDS011;4947;44.526;11.360;2023-02-21T19:04:21;55.60;;;28.90;;
9815;SDS011;4947;44.526;11.360;2023-02-21T19:06:49;64.43;;;28.23;;
9815;SDS011;4947;44.526;11.360;2023-02-21T19:09:17;57.13;;;27.42;;
9815;SDS011;4947;44.526;11.360;2023-02-21T19:11:45;52.22;;;27.80;;
9815;SDS011;4947;44.526;11.360;2023-02-21T19:14:13;48.85;;;26.00;;
9815;SDS011;4947;44.526;11.360;2023-02-21T19:16:41;46.10;;;25.40;;